Terminal Aerodrome Forecast
Issued by NWS Wilmington, OH

Current Version | Previous Version | Graphics & Text | Print | Product List | Glossary On
Versions: 1 2 3 4 5 6 7 8 9 10 11 12 13 14 15 16 17 18 19 20 21
000
FTUS41 KILN 172300
TAFDAY
TAF
KDAY 172334Z 1800/1824 14007KT P6SM VCSH SCT035 OVC070
     FM180600 08004KT 4SM BR OVC025
     FM181400 05004KT 5SM HZ OVC028
     FM181900 01005KT P6SM BKN040=

USA.gov is the U.S. government's official web portal to all federal, state and local government web resources and services.